createdAt,value
2017-11-17T00:01:43.655Z,15.90
2017-11-17T00:04:12.738Z,14.87
2017-11-17T00:06:41.830Z,14.27
2017-11-17T00:09:11.226Z,14.87
2017-11-17T00:11:40.316Z,15.20
2017-11-17T00:14:10.071Z,15.47
2017-11-17T00:16:38.448Z,15.77
2017-11-17T00:19:06.774Z,14.53
2017-11-17T00:21:35.103Z,15.80
2017-11-17T00:24:03.469Z,15.60
2017-11-17T00:26:31.796Z,15.47
2017-11-17T00:29:00.128Z,14.77
2017-11-17T00:31:28.678Z,15.53
2017-11-17T00:33:57.772Z,15.37
2017-11-17T00:36:26.909Z,16.47
2017-11-17T00:38:55.235Z,16.10
2017-11-17T00:41:24.331Z,14.63
2017-11-17T00:43:53.448Z,16.03
2017-11-17T00:46:21.768Z,15.90
2017-11-17T00:48:50.092Z,14.97
2017-11-17T00:51:19.450Z,14.73
2017-11-17T00:53:47.776Z,15.53
2017-11-17T00:56:16.105Z,15.07
2017-11-17T00:58:44.476Z,16.20
2017-11-17T01:01:12.798Z,16.80
2017-11-17T01:03:41.899Z,18.00
2017-11-17T01:06:10.666Z,15.47
2017-11-17T01:08:40.247Z,16.47
2017-11-17T01:11:08.576Z,16.07
2017-11-17T01:13:37.575Z,16.60
2017-11-17T01:16:05.907Z,16.40
2017-11-17T01:18:34.245Z,16.37
2017-11-17T01:21:02.818Z,16.07
2017-11-17T01:23:31.148Z,17.80
2017-11-17T01:25:59.475Z,17.40
2017-11-17T01:28:27.844Z,18.10
2017-11-17T01:30:56.167Z,17.13
2017-11-17T01:33:24.528Z,16.63
2017-11-17T01:35:52.583Z,16.77
2017-11-17T01:38:20.908Z,17.27
2017-11-17T01:40:50.000Z,17.10
2017-11-17T01:43:18.055Z,17.40
2017-11-17T01:45:46.392Z,17.13
2017-11-17T01:48:14.719Z,16.50
2017-11-17T01:50:43.068Z,17.70
2017-11-17T01:53:12.383Z,15.93
2017-11-17T01:55:40.061Z,17.10
2017-11-17T01:58:08.610Z,17.30
2017-11-17T02:00:37.629Z,17.00
2017-11-17T02:03:05.949Z,16.67
2017-11-17T02:05:34.290Z,17.43
2017-11-17T02:08:02.822Z,17.60
2017-11-17T02:10:30.824Z,18.10
2017-11-17T02:13:00.172Z,18.20
2017-11-17T02:15:28.190Z,17.53
2017-11-17T02:17:56.520Z,17.63
2017-11-17T02:20:24.219Z,16.97
2017-11-17T02:22:52.591Z,18.07
2017-11-17T02:25:20.427Z,16.50
2017-11-17T02:27:48.127Z,16.17
2017-11-17T02:30:16.316Z,17.23
2017-11-17T02:32:43.993Z,17.70
2017-11-17T02:35:12.229Z,18.37
2017-11-17T02:37:40.479Z,17.37
2017-11-17T02:40:08.476Z,18.20
2017-11-17T02:42:36.269Z,16.57
2017-11-17T02:45:04.128Z,17.23
2017-11-17T02:47:32.352Z,17.67
2017-11-17T02:50:00.348Z,18.37
2017-11-17T02:52:29.048Z,17.37
2017-11-17T02:54:57.428Z,17.73
2017-11-17T02:57:25.086Z,18.13
2017-11-17T02:59:53.420Z,17.23
2017-11-17T03:02:22.136Z,17.60
2017-11-17T03:04:50.464Z,17.63
2017-11-17T03:07:18.798Z,19.30
2017-11-17T03:09:47.014Z,19.37
2017-11-17T03:12:15.008Z,21.30
2017-11-17T03:14:43.028Z,18.63
2017-11-17T03:17:11.892Z,19.07
2017-11-17T03:19:40.139Z,18.87
2017-11-17T03:22:08.136Z,23.57
2017-11-17T03:24:36.496Z,88.63
2017-11-17T03:27:04.767Z,73.23
2017-11-17T03:29:32.443Z,39.87
2017-11-17T03:32:01.733Z,29.70
2017-11-17T03:34:29.755Z,34.87
2017-11-17T03:36:58.764Z,28.17
2017-11-17T03:39:26.771Z,26.47
2017-11-17T03:41:56.311Z,22.90
2017-11-17T03:44:25.419Z,24.87
2017-11-17T03:46:53.151Z,27.23
2017-11-17T03:49:21.146Z,25.60
2017-11-17T03:51:51.140Z,24.20
2017-11-17T03:54:19.186Z,21.17
2017-11-17T03:56:47.515Z,22.00
2017-11-17T03:59:15.848Z,19.80
2017-11-17T04:01:45.182Z,23.63
2017-11-17T04:04:13.954Z,24.53
2017-11-17T04:06:42.143Z,25.47
2017-11-17T04:09:11.283Z,22.47
2017-11-17T04:11:40.594Z,24.57
2017-11-17T04:14:09.461Z,20.93
2017-11-17T04:16:37.843Z,22.47
2017-11-17T04:19:06.165Z,21.50
2017-11-17T04:21:34.517Z,20.67
2017-11-17T04:24:02.728Z,21.50
2017-11-17T04:26:31.819Z,20.77
2017-11-17T04:29:00.960Z,21.27
2017-11-17T04:31:29.286Z,21.40
2017-11-17T04:33:58.382Z,20.47
2017-11-17T04:36:27.551Z,21.30
2017-11-17T04:38:55.884Z,19.30
2017-11-17T04:41:24.217Z,20.07
2017-11-17T04:43:52.433Z,21.27
2017-11-17T04:46:20.808Z,19.77
2017-11-17T04:48:48.839Z,19.00
2017-11-17T04:51:17.164Z,19.07
2017-11-17T04:53:45.155Z,18.43
2017-11-17T04:56:13.530Z,18.43
2017-11-17T04:58:41.855Z,18.80
2017-11-17T05:01:10.827Z,18.83
2017-11-17T05:03:39.855Z,19.40
2017-11-17T05:06:08.211Z,19.10
2017-11-17T05:08:36.559Z,19.00
2017-11-17T05:11:04.892Z,19.37
2017-11-17T05:13:33.232Z,17.90
2017-11-17T05:16:01.583Z,17.60
2017-11-17T05:18:29.903Z,18.37
2017-11-17T05:20:59.036Z,18.13
2017-11-17T05:23:27.367Z,19.10
2017-11-17T05:25:55.747Z,18.47
2017-11-17T05:28:24.859Z,19.33
2017-11-17T05:30:53.208Z,19.67
2017-11-17T05:33:21.540Z,17.93
2017-11-17T05:35:49.862Z,17.67
2017-11-17T05:38:18.245Z,17.60
2017-11-17T05:40:46.586Z,17.87
2017-11-17T05:43:14.910Z,17.73
2017-11-17T05:45:44.024Z,17.30
2017-11-17T05:48:12.364Z,19.30
2017-11-17T05:50:41.351Z,17.93
2017-11-17T05:53:10.140Z,17.90
2017-11-17T05:55:38.463Z,16.23
2017-11-17T05:58:06.832Z,19.53
2017-11-17T06:00:35.170Z,16.93
2017-11-17T06:03:03.508Z,16.77
2017-11-17T06:05:31.858Z,17.30
2017-11-17T06:08:00.192Z,15.87
2017-11-17T06:10:28.559Z,16.43
2017-11-17T06:12:56.888Z,15.93
2017-11-17T06:15:25.211Z,14.97
2017-11-17T06:17:53.571Z,39.83
2017-11-17T06:20:22.103Z,45.97
2017-11-17T06:22:51.219Z,32.17
2017-11-17T06:25:19.028Z,20.73
2017-11-17T06:27:47.568Z,20.40
2017-11-17T06:30:16.652Z,20.43
2017-11-17T06:32:45.982Z,19.77
2017-11-17T06:35:14.308Z,18.17
2017-11-17T06:37:42.650Z,18.47
2017-11-17T06:40:11.803Z,17.77
2017-11-17T06:42:41.616Z,17.83
2017-11-17T06:45:10.706Z,17.23
2017-11-17T06:47:39.831Z,17.30
2017-11-17T06:50:08.163Z,17.93
2017-11-17T06:52:36.732Z,17.13
2017-11-17T06:55:05.060Z,17.27
2017-11-17T06:57:33.452Z,20.87
2017-11-17T07:00:01.803Z,18.57
2017-11-17T07:02:30.126Z,17.37
2017-11-17T07:04:58.491Z,17.00
2017-11-17T07:07:26.856Z,18.13
2017-11-17T07:09:55.192Z,18.07
2017-11-17T07:12:24.615Z,18.20
2017-11-17T07:14:52.968Z,19.03
2017-11-17T07:17:22.070Z,18.43
2017-11-17T07:19:51.158Z,17.67
2017-11-17T07:22:21.288Z,18.17
2017-11-17T07:24:50.383Z,18.70
2017-11-17T07:27:19.476Z,19.53
2017-11-17T07:29:48.619Z,18.23
2017-11-17T07:32:16.955Z,20.03
2017-11-17T07:34:44.957Z,19.30
2017-11-17T07:37:13.504Z,18.00
2017-11-17T07:39:42.848Z,20.00
2017-11-17T07:42:12.197Z,18.67
2017-11-17T07:44:41.297Z,19.70
2017-11-17T07:47:11.084Z,18.47
2017-11-17T07:49:40.115Z,18.70
2017-11-17T07:52:10.008Z,19.57
2017-11-17T07:54:39.202Z,17.83
2017-11-17T07:57:07.713Z,19.63
2017-11-17T07:59:36.263Z,18.67
2017-11-17T08:02:06.388Z,19.50
2017-11-17T08:04:35.480Z,20.10
2017-11-17T08:07:04.653Z,20.57
2017-11-17T08:09:32.842Z,19.20
2017-11-17T08:12:02.348Z,20.20
2017-11-17T08:14:31.444Z,18.63
2017-11-17T08:17:11.818Z,20.83
2017-11-17T08:19:40.151Z,20.07
2017-11-17T08:22:08.480Z,20.80
2017-11-17T08:24:36.857Z,20.93
2017-11-17T08:27:05.188Z,22.43
2017-11-17T08:29:33.513Z,22.07
2017-11-17T08:32:02.895Z,21.07
2017-11-17T08:34:32.234Z,21.97
2017-11-17T08:37:00.788Z,22.50
2017-11-17T08:39:29.122Z,20.63
2017-11-17T08:41:58.500Z,21.63
2017-11-17T08:44:26.820Z,21.13
2017-11-17T08:46:55.944Z,21.63
2017-11-17T08:49:24.472Z,20.63
2017-11-17T08:51:53.507Z,21.37
2017-11-17T08:54:21.936Z,20.57
2017-11-17T08:56:49.933Z,21.60
2017-11-17T08:59:18.479Z,19.10
2017-11-17T09:01:48.597Z,19.70
2017-11-17T09:04:16.951Z,21.10
2017-11-17T09:06:45.319Z,23.40
2017-11-17T09:09:13.652Z,21.57
2017-11-17T09:11:43.027Z,20.53
2017-11-17T09:14:11.373Z,21.50
2017-11-17T09:16:40.320Z,21.67
2017-11-17T09:19:08.700Z,22.20
2017-11-17T09:21:37.980Z,20.43
2017-11-17T09:24:06.508Z,21.63
2017-11-17T09:26:35.652Z,21.73
2017-11-17T09:29:03.980Z,22.70
2017-11-17T09:31:32.303Z,23.00
2017-11-17T09:34:00.655Z,23.17
2017-11-17T09:36:28.979Z,23.07
2017-11-17T09:38:57.336Z,23.23
2017-11-17T09:41:25.907Z,22.43
2017-11-17T09:43:54.260Z,23.87
2017-11-17T09:46:22.649Z,25.33
2017-11-17T09:48:51.203Z,23.33
2017-11-17T09:51:20.303Z,22.57
2017-11-17T09:53:49.283Z,20.90
2017-11-17T09:56:18.392Z,21.53
2017-11-17T09:58:46.727Z,20.90
2017-11-17T10:01:15.268Z,20.30
2017-11-17T10:03:43.595Z,21.17
2017-11-17T10:06:11.976Z,20.30
2017-11-17T10:08:40.306Z,21.03
2017-11-17T10:11:07.967Z,19.33
2017-11-17T10:13:36.427Z,19.60
2017-11-17T10:16:04.757Z,20.10
2017-11-17T10:18:33.085Z,20.33
2017-11-17T10:21:01.215Z,18.87
2017-11-17T10:23:29.579Z,18.33
2017-11-17T10:25:57.914Z,19.30
2017-11-17T10:28:26.241Z,18.30
2017-11-17T10:30:54.604Z,19.07
2017-11-17T10:33:22.935Z,19.60
2017-11-17T10:35:51.262Z,20.23
2017-11-17T10:38:19.859Z,20.83
2017-11-17T10:40:47.540Z,20.63
2017-11-17T10:43:16.635Z,22.97
2017-11-17T10:45:45.756Z,27.53
2017-11-17T10:48:14.966Z,23.83
2017-11-17T10:50:43.291Z,22.83
2017-11-17T10:53:12.380Z,27.53
2017-11-17T10:55:40.716Z,21.93
2017-11-17T10:58:09.444Z,28.03
2017-11-17T11:00:38.540Z,22.20
2017-11-17T11:03:06.582Z,22.73
2017-11-17T11:05:34.903Z,24.10
2017-11-17T11:08:03.672Z,21.60
2017-11-17T11:10:38.151Z,22.23
2017-11-17T11:13:05.883Z,21.27
2017-11-17T11:15:34.455Z,21.43
2017-11-17T11:18:03.416Z,22.17
2017-11-17T11:20:31.964Z,22.17
2017-11-17T11:23:00.293Z,21.93
2017-11-17T11:25:29.626Z,20.53
2017-11-17T11:27:57.958Z,21.97
2017-11-17T11:30:26.481Z,19.90
2017-11-17T11:32:54.830Z,19.60
2017-11-17T11:35:23.821Z,19.67
2017-11-17T11:37:52.952Z,18.07
2017-11-17T11:40:20.615Z,20.40
2017-11-17T11:42:48.949Z,17.00
2017-11-17T11:45:17.075Z,17.03
2017-11-17T11:47:45.400Z,17.37
2017-11-17T11:50:14.696Z,17.93
2017-11-17T11:52:43.812Z,16.10
2017-11-17T11:55:12.188Z,15.93
2017-11-17T11:57:41.407Z,16.60
2017-11-17T12:00:10.586Z,15.67
2017-11-17T12:02:38.912Z,14.23
2017-11-17T12:05:07.241Z,15.10
2017-11-17T12:07:35.583Z,14.57
2017-11-17T12:10:04.024Z,14.07
2017-11-17T12:12:32.346Z,14.33
2017-11-17T12:15:01.443Z,13.93
2017-11-17T12:17:30.559Z,13.90
2017-11-17T12:19:58.893Z,13.77
2017-11-17T12:22:27.260Z,13.63
2017-11-17T12:24:55.587Z,13.20
2017-11-17T12:27:23.970Z,14.43
2017-11-17T12:29:52.347Z,13.30
2017-11-17T12:32:20.688Z,15.10
2017-11-17T12:34:48.556Z,14.37
2017-11-17T12:37:16.927Z,17.17
2017-11-17T12:39:45.471Z,14.83
2017-11-17T12:42:14.903Z,16.40
2017-11-17T12:44:43.233Z,15.90
2017-11-17T12:47:11.568Z,16.33
2017-11-17T12:49:40.883Z,16.13
2017-11-17T12:52:10.032Z,15.13
2017-11-17T12:54:38.387Z,14.80
2017-11-17T12:57:06.718Z,17.23
2017-11-17T12:59:35.053Z,14.83
2017-11-17T13:02:03.417Z,14.87
2017-11-17T13:04:31.984Z,14.90
2017-11-17T13:07:00.311Z,16.43
2017-11-17T13:09:28.889Z,18.33
2017-11-17T13:11:57.219Z,15.73
2017-11-17T13:14:25.564Z,19.47
2017-11-17T13:16:53.926Z,17.60
2017-11-17T13:19:22.257Z,20.10
2017-11-17T13:21:50.587Z,18.73
2017-11-17T13:24:18.947Z,18.67
2017-11-17T13:26:47.472Z,19.83
2017-11-17T13:55:14.936Z,18.73
2017-11-17T13:57:43.263Z,19.07
2017-11-17T14:00:11.595Z,19.93
2017-11-17T14:02:40.901Z,19.17
2017-11-17T14:05:09.523Z,18.93
2017-11-17T14:07:37.884Z,22.20
2017-11-17T14:10:06.207Z,20.80
2017-11-17T14:12:35.295Z,21.43
2017-11-17T14:15:04.435Z,21.77
2017-11-17T14:17:32.770Z,18.43
2017-11-17T14:20:01.861Z,18.83
2017-11-17T14:22:30.992Z,17.73
2017-11-17T14:24:59.315Z,16.77
2017-11-17T14:27:27.660Z,17.03
2017-11-17T14:29:56.044Z,16.93
2017-11-17T14:32:24.381Z,19.00
2017-11-17T14:34:52.374Z,17.50
2017-11-17T14:37:20.941Z,18.13
2017-11-17T14:39:49.263Z,18.27
2017-11-17T14:42:17.587Z,18.77
2017-11-17T14:44:45.963Z,18.90
2017-11-17T14:47:14.322Z,17.57
2017-11-17T14:49:43.411Z,17.50
2017-11-17T14:52:12.547Z,21.00
2017-11-17T14:54:40.876Z,18.43
2017-11-17T14:57:09.589Z,23.57
2017-11-17T14:59:38.677Z,25.80
2017-11-17T15:02:07.145Z,24.30
2017-11-17T15:04:35.915Z,24.10
2017-11-17T15:07:04.236Z,21.50
2017-11-17T15:09:32.592Z,25.40
2017-11-17T15:12:01.152Z,23.03
2017-11-17T15:14:29.143Z,24.77
2017-11-17T15:16:58.252Z,21.40
2017-11-17T15:19:26.616Z,17.63
2017-11-17T15:21:55.575Z,20.17
2017-11-17T15:24:23.910Z,20.00
2017-11-17T15:26:52.287Z,20.00
2017-11-17T15:29:20.482Z,21.90
2017-11-17T15:31:48.817Z,18.43
2017-11-17T15:34:17.347Z,21.33
2017-11-17T15:36:45.675Z,22.80
2017-11-17T15:39:13.940Z,26.65
2017-11-17T15:41:43.254Z,21.77
2017-11-17T15:44:11.660Z,20.10
2017-11-17T15:46:40.205Z,20.77
2017-11-17T15:49:09.503Z,20.10
2017-11-17T15:51:39.663Z,21.03
2017-11-17T15:54:07.652Z,21.07
2017-11-17T15:56:36.214Z,18.77
2017-11-17T15:59:03.881Z,20.60
2017-11-17T16:01:31.871Z,20.53
2017-11-17T16:04:00.061Z,19.13
2017-11-17T16:06:28.267Z,19.83
2017-11-17T16:08:56.591Z,20.63
2017-11-17T16:11:24.674Z,20.57
2017-11-17T16:13:53.003Z,20.13
2017-11-17T16:16:21.573Z,20.60
2017-11-17T16:18:49.904Z,26.65
2017-11-17T16:21:17.909Z,21.90
2017-11-17T16:23:45.938Z,25.10
2017-11-17T16:26:14.473Z,22.80
2017-11-17T16:28:42.469Z,22.43
2017-11-17T16:31:11.488Z,22.07
2017-11-17T16:33:39.544Z,21.73
2017-11-17T16:36:07.867Z,22.97
2017-11-17T16:38:36.233Z,19.60
2017-11-17T16:41:05.193Z,23.07
2017-11-17T16:43:33.528Z,21.20
2017-11-17T16:46:01.221Z,20.07
2017-11-17T16:48:29.235Z,22.50
2017-11-17T16:50:57.299Z,19.90
2017-11-17T16:53:26.387Z,19.87
2017-11-17T16:55:55.152Z,19.57
2017-11-17T16:58:22.833Z,18.70
2017-11-17T17:00:51.930Z,18.53
2017-11-17T17:03:21.067Z,17.40
2017-11-17T17:05:49.386Z,19.40
2017-11-17T17:08:17.755Z,18.90
2017-11-17T17:10:45.444Z,19.47
2017-11-17T17:13:13.879Z,18.77
2017-11-17T17:15:42.563Z,18.33
2017-11-17T17:18:10.614Z,20.63
2017-11-17T17:20:38.612Z,20.27
2017-11-17T17:23:06.939Z,22.83
2017-11-17T17:25:35.571Z,20.03
2017-11-17T17:28:03.232Z,19.33
2017-11-17T17:30:31.736Z,19.07
2017-11-17T17:33:00.087Z,19.00
2017-11-17T17:35:28.420Z,18.57
2017-11-17T17:37:56.756Z,18.33
2017-11-17T17:40:25.127Z,18.80
2017-11-17T17:42:53.460Z,18.83
2017-11-17T17:45:21.831Z,18.23
2017-11-17T17:47:50.181Z,18.20
2017-11-17T17:50:19.271Z,16.93
2017-11-17T17:52:48.382Z,16.60
2017-11-17T17:55:17.164Z,17.80
2017-11-17T17:57:45.708Z,18.57
2017-11-17T18:00:13.735Z,18.00
2017-11-17T18:02:42.353Z,18.33
2017-11-17T18:05:10.684Z,20.87
2017-11-17T18:07:38.727Z,21.13
2017-11-17T18:10:07.108Z,20.30
2017-11-17T18:12:35.478Z,18.70
2017-11-17T18:15:03.837Z,22.23
2017-11-17T18:17:32.158Z,21.87
2017-11-17T18:20:01.337Z,18.60
2017-11-17T18:22:29.880Z,21.13
2017-11-17T18:24:58.380Z,18.93
2017-11-17T18:27:26.723Z,17.67
2017-11-17T18:29:54.401Z,16.80
2017-11-17T18:32:22.961Z,17.73
2017-11-17T18:34:51.327Z,17.37
2017-11-17T18:37:19.918Z,17.27
2017-11-17T18:39:48.430Z,16.03
2017-11-17T18:42:16.771Z,16.23
2017-11-17T18:44:46.111Z,15.57
2017-11-17T18:47:14.655Z,16.27
2017-11-17T18:49:43.233Z,16.63
2017-11-17T18:52:12.395Z,15.77
2017-11-17T18:54:40.575Z,15.33
2017-11-17T18:57:09.940Z,15.10
2017-11-17T18:59:38.083Z,14.63
2017-11-17T19:02:06.589Z,15.00
2017-11-17T19:04:34.989Z,13.63
2017-11-17T19:07:04.275Z,13.63
2017-11-17T19:09:32.792Z,13.67
2017-11-17T19:12:01.911Z,13.83
2017-11-17T19:14:31.262Z,15.57
2017-11-17T19:16:59.793Z,13.67
2017-11-17T19:19:28.123Z,13.97
2017-11-17T19:21:56.731Z,16.67
2017-11-17T19:24:25.834Z,16.10
2017-11-17T19:26:54.159Z,15.13
2017-11-17T19:29:23.636Z,14.37
2017-11-17T19:31:51.961Z,14.27
2017-11-17T19:34:20.355Z,13.80
2017-11-17T19:36:49.454Z,12.33
2017-11-17T19:39:18.551Z,14.00
2017-11-17T19:41:47.013Z,14.70
2017-11-17T19:44:16.119Z,14.73
2017-11-17T19:46:45.270Z,14.30
2017-11-17T19:49:13.728Z,13.73
2017-11-17T19:51:42.752Z,13.00
2017-11-17T19:54:11.162Z,13.20
2017-11-17T19:56:41.203Z,13.10
2017-11-17T19:59:09.643Z,11.80
2017-11-17T20:01:38.046Z,12.70
2017-11-17T20:04:06.534Z,11.50
2017-11-17T20:06:36.065Z,11.47
2017-11-17T20:09:03.793Z,11.67
2017-11-17T20:11:32.912Z,12.90
2017-11-17T20:14:01.260Z,13.07
2017-11-17T20:16:30.593Z,11.53
2017-11-17T20:18:59.123Z,13.27
2017-11-17T20:21:27.555Z,13.23
2017-11-17T20:23:55.893Z,13.37
2017-11-17T20:26:25.213Z,12.30
2017-11-17T20:28:54.587Z,13.70
2017-11-17T20:31:24.982Z,17.50
2017-11-17T20:33:53.429Z,19.10
2017-11-17T20:36:21.773Z,12.20
2017-11-17T20:38:50.966Z,13.87
2017-11-17T20:41:21.400Z,20.30
2017-11-17T20:43:49.746Z,15.40
2017-11-17T20:46:18.262Z,21.23
2017-11-17T20:48:46.626Z,14.97
2017-11-17T20:51:15.716Z,23.07
2017-11-17T20:53:44.840Z,17.73
2017-11-17T20:56:13.561Z,16.60
2017-11-17T20:58:41.913Z,29.27
2017-11-17T21:01:10.312Z,18.97
2017-11-17T21:03:38.633Z,14.63
2017-11-17T21:06:07.730Z,19.00
2017-11-17T21:08:37.154Z,16.57
2017-11-17T21:11:05.514Z,16.97
2017-11-17T21:13:33.956Z,24.43
2017-11-17T21:16:03.210Z,20.43
2017-11-17T21:18:31.568Z,22.87
2017-11-17T21:20:59.942Z,21.97
2017-11-17T21:23:28.270Z,17.17
2017-11-17T21:25:56.602Z,17.53
2017-11-17T21:28:25.783Z,17.40
2017-11-17T21:30:55.715Z,16.63
2017-11-17T21:33:24.522Z,21.27
2017-11-17T21:35:53.293Z,17.13
2017-11-17T21:38:21.612Z,15.77
2017-11-17T21:40:49.972Z,15.87
2017-11-17T21:43:18.327Z,14.87
2017-11-17T21:45:46.871Z,15.67
2017-11-17T21:48:15.980Z,14.83
2017-11-17T21:50:44.312Z,16.03
2017-11-17T21:53:12.640Z,15.17
2017-11-17T21:55:40.979Z,14.77
2017-11-17T21:58:09.515Z,15.50
2017-11-17T22:00:37.889Z,12.30
2017-11-17T22:03:06.220Z,14.07
2017-11-17T22:05:34.825Z,13.70
2017-11-17T22:08:03.202Z,12.30
2017-11-17T22:10:32.496Z,12.47
2017-11-17T22:13:01.588Z,12.50
2017-11-17T22:15:30.720Z,11.40
2017-11-17T22:17:59.047Z,11.83
2017-11-17T22:20:28.138Z,11.20
2017-11-17T22:22:56.696Z,10.87
2017-11-17T22:25:25.024Z,10.33
2017-11-17T22:27:53.781Z,10.90
2017-11-17T22:30:22.189Z,10.97
2017-11-17T22:32:50.514Z,9.80
2017-11-17T22:35:18.876Z,9.93
2017-11-17T22:37:47.197Z,9.90
2017-11-17T22:40:16.284Z,9.57
2017-11-17T22:42:45.427Z,9.60
2017-11-17T22:45:13.760Z,9.30
2017-11-17T22:47:42.845Z,9.03
2017-11-17T22:50:11.435Z,9.37
2017-11-17T22:52:40.523Z,9.80
2017-11-17T22:55:09.619Z,8.97
2017-11-17T22:57:37.960Z,9.17
2017-11-17T23:00:06.284Z,8.83
2017-11-17T23:02:35.371Z,8.90
2017-11-17T23:05:04.518Z,9.40
2017-11-17T23:07:32.840Z,8.50
2017-11-17T23:10:01.957Z,9.40
2017-11-17T23:12:30.309Z,10.73
2017-11-17T23:14:58.744Z,10.13
2017-11-17T23:17:27.235Z,10.07
2017-11-17T23:19:56.221Z,10.63
2017-11-17T23:22:25.135Z,11.43
2017-11-17T23:24:53.810Z,12.83
2017-11-17T23:27:22.127Z,11.97
2017-11-17T23:29:50.464Z,14.20
2017-11-17T23:32:18.839Z,13.63
2017-11-17T23:34:47.195Z,16.50
2017-11-17T23:37:15.522Z,14.67
2017-11-17T23:39:44.860Z,12.27
2017-11-17T23:42:13.207Z,13.90
2017-11-17T23:44:41.538Z,11.67
2017-11-17T23:47:09.910Z,11.43
2017-11-17T23:49:38.111Z,11.67
2017-11-17T23:52:05.779Z,11.10
2017-11-17T23:54:33.680Z,11.77
2017-11-17T23:57:02.197Z,12.13
2017-11-17T23:59:30.529Z,12.63
